Terminal Aerodrome Forecast
Issued by NWS Chicago, IL

Home | Current Version | Previous Version | Graphics & Text | Print | Product List | Glossary Off
Versions: 1 2 3 4 5 6 7 8 9 10 11 12 13 14 15 16 17 18 19 20 21 22 23 24 25

000
FTUS43 KLOT 261743
TAFRFD
TAF
KRFD 261743Z 2618/2718 22012KT P6SM FEW030 BKN250
     FM270300 21007KT P6SM SCT250 PROB30 2709/2712 3SM TSRA BR
      BKN035CB
     FM271200 20011KT P6SM SCT050 BKN250
     FM271500 21010KT 6SM BR VCSH BKN030 OVC050=

USA.gov is the U.S. government's official web portal to all federal, state and local government web resources and services.